aviador You're here:

CYHU Decoded Metar

MONTREAL in QC, CANADA
Report Time2017-09-21 21:00:00
UTC Time2017-09-21 21:17:50
Flight Rules vfr VFR
Wind020° at 10 kt
W.Decomp.*RWY 06: 9.1 kt HW 4.1 kt LCW
RWY 10: 4.4 kt HW 9 kt LCW
W.Rank020° ranks 6
Current wind is above 020° avg. (7.9)
Visibility9999 m
Phenomena:N/A
Clouds:N/A
Expected CloudBase > 5,600 ft AGL from Temp-Dew spread
CeilingNone
Temp25°C (ISA +10)
Dew Point11°C (42% RH)
AAT21.8°C
QNH1020 hPa
Density Alt1,211 ft
Elevation89 ft
Report Wrong Elevation
Raw Report
CYHU 212100Z AUTO 02010KT 9SM CLR 25/11 A3011 RMK SLP199 DENSITY
ALT 1000FT=

Extra information for CYHU:More info

Metar Taf Metar & Taf Last 4 Metars F.Rules Stats Wind Profile Meteogram Temp Stats Airport Information Weather charts Add Link Nearby VenuesMetar ALERT Operation Metar Decoded Social comments